Time;durP1;ratioP1;P1;durP2;ratioP2;P2;SDS_P1;SDS_P2;PMS_P1;PMS_P2;Temp;Humidity;BMP_temperature;BMP_pressure;BME280_temperature;BME280_humidity;BME280_pressure;Samples;Min_cycle;Max_cycle;Signal;HPM_P1;HPM_P2
2023/08/21 00:00:21;;;;;;;10.55;8.80;;;;;;;21.80;100.00;98805.41;3209326;23;20070;-86
2023/08/21 00:01:59;;;;;;;10.73;8.32;;;;;;;21.93;100.00;98806.28;3209553;23;20075;-86
2023/08/21 00:03:14;;;;;;;13.88;8.60;;;;;;;21.90;100.00;98803.81;3209273;23;20040;-85
2023/08/21 00:04:30;;;;;;;10.18;8.80;;;;;;;21.97;100.00;98807.75;3209381;23;20554;-86
2023/08/21 00:05:45;;;;;;;11.50;8.65;;;;;;;21.80;100.00;98811.59;3209442;23;20545;-85
2023/08/21 00:07:01;;;;;;;10.10;8.10;;;;;;;21.63;100.00;98809.19;3214855;23;20017;-86
2023/08/21 00:08:16;;;;;;;12.23;8.80;;;;;;;21.64;100.00;98805.56;3209442;23;20074;-85
2023/08/21 00:09:32;;;;;;;10.95;9.32;;;;;;;21.77;100.00;98801.13;3209697;23;20016;-86
2023/08/21 00:10:48;;;;;;;14.13;9.35;;;;;;;21.67;100.00;98805.41;3198132;23;20029;-86
2023/08/21 00:12:04;;;;;;;12.68;9.02;;;;;;;21.79;100.00;98801.91;3202126;23;20032;-86
2023/08/21 00:13:19;;;;;;;11.60;9.27;;;;;;;21.70;100.00;98807.84;3209621;23;20501;-86
2023/08/21 00:14:35;;;;;;;14.68;9.95;;;;;;;21.54;100.00;98816.88;3209389;23;20086;-86
2023/08/21 00:15:51;;;;;;;10.13;8.77;;;;;;;21.06;100.00;98811.16;3214786;23;20025;-86
2023/08/21 00:17:07;;;;;;;10.30;8.85;;;;;;;21.28;100.00;98795.50;3193004;23;20060;-86
2023/08/21 00:18:23;;;;;;;11.65;9.45;;;;;;;21.21;100.00;98798.66;3204922;23;20023;-86
2023/08/21 00:19:38;;;;;;;13.90;10.05;;;;;;;21.38;100.00;98802.88;3209418;23;20020;-86
2023/08/21 00:20:54;;;;;;;11.90;9.73;;;;;;;21.19;100.00;98803.25;3198205;23;20028;-86
2023/08/21 00:22:10;;;;;;;13.38;9.40;;;;;;;21.32;100.00;98804.13;3204522;23;20075;-85
2023/08/21 00:23:25;;;;;;;12.50;9.93;;;;;;;21.50;100.00;98801.19;3209602;23;20027;-85
2023/08/21 00:24:40;;;;;;;13.10;9.35;;;;;;;21.54;100.00;98795.56;3209598;23;20510;-86
2023/08/21 00:25:56;;;;;;;13.52;10.23;;;;;;;21.35;100.00;98798.59;3209670;23;20013;-85
2023/08/21 00:27:12;;;;;;;13.75;10.43;;;;;;;21.43;100.00;98798.09;3209462;23;20013;-86
2023/08/21 00:28:32;;;;;;;19.08;10.20;;;;;;;21.52;100.00;98794.81;3198060;23;20028;-85
2023/08/21 00:29:48;;;;;;;15.82;10.20;;;;;;;21.43;100.00;98798.09;3200741;23;20024;-86
2023/08/21 00:31:04;;;;;;;14.15;10.48;;;;;;;21.49;100.00;98795.00;3209549;23;20601;-86
2023/08/21 00:32:20;;;;;;;11.75;9.75;;;;;;;21.63;100.00;98798.53;3209501;23;20016;-86
2023/08/21 00:33:37;;;;;;;13.90;10.15;;;;;;;21.61;100.00;98792.47;3209522;23;20021;-86
2023/08/21 00:34:52;;;;;;;12.35;9.93;;;;;;;21.75;100.00;98797.72;3214773;23;20027;-85
2023/08/21 00:36:08;;;;;;;13.82;10.40;;;;;;;21.59;100.00;98793.41;3209315;23;20021;-86
2023/08/21 00:37:23;;;;;;;14.38;10.70;;;;;;;21.34;100.00;98794.22;3209603;23;20013;-86
2023/08/21 00:38:40;;;;;;;14.57;10.82;;;;;;;21.36;100.00;98799.44;3209338;23;20324;-85
2023/08/21 00:39:55;;;;;;;11.77;9.93;;;;;;;21.36;100.00;98796.78;3215006;23;20437;-85
2023/08/21 00:41:12;;;;;;;16.38;10.30;;;;;;;21.41;100.00;98794.69;3214419;23;20122;-85
2023/08/21 00:42:27;;;;;;;17.05;10.52;;;;;;;21.47;100.00;98788.91;3209462;23;20017;-85
2023/08/21 00:43:43;;;;;;;17.30;10.02;;;;;;;21.31;100.00;98789.13;3198150;23;20021;-85
2023/08/21 00:44:58;;;;;;;11.57;9.95;;;;;;;21.23;100.00;98784.31;3204825;23;20031;-85
2023/08/21 00:46:15;;;;;;;14.23;10.48;;;;;;;21.17;100.00;98788.22;3214517;23;20017;-85
2023/08/21 00:47:31;;;;;;;12.40;10.10;;;;;;;21.14;100.00;98779.59;3209569;23;20017;-86
2023/08/21 00:48:46;;;;;;;14.20;10.20;;;;;;;21.15;100.00;98778.63;3209670;23;20079;-85
2023/08/21 00:50:03;;;;;;;13.25;10.63;;;;;;;21.23;100.00;98780.78;3214620;23;20048;-86
2023/08/21 00:51:19;;;;;;;15.93;10.65;;;;;;;21.29;100.00;98781.22;3209339;23;20021;-85
2023/08/21 00:52:36;;;;;;;14.73;10.70;;;;;;;21.25;100.00;98779.72;3193113;23;20017;-85
2023/08/21 00:53:51;;;;;;;13.75;11.07;;;;;;;21.30;100.00;98777.59;3204962;23;20020;-85
2023/08/21 00:55:08;;;;;;;13.57;10.77;;;;;;;21.39;100.00;98777.94;3193028;23;20505;-85
2023/08/21 00:56:24;;;;;;;13.93;10.77;;;;;;;21.48;100.00;98785.28;3200108;23;20040;-85
2023/08/21 00:57:40;;;;;;;15.73;10.73;;;;;;;21.57;100.00;98783.81;3209318;23;20020;-85
2023/08/21 00:58:56;;;;;;;14.95;11.35;;;;;;;21.57;100.00;98778.47;3209568;23;20039;-85
2023/08/21 01:00:12;;;;;;;14.43;10.50;;;;;;;21.33;100.00;98778.34;3214282;23;20104;-85
2023/08/21 01:01:28;;;;;;;14.15;11.05;;;;;;;21.27;100.00;98793.78;3213399;23;20016;-85
2023/08/21 01:02:44;;;;;;;13.48;10.43;;;;;;;21.27;100.00;98783.13;3209354;23;20016;-85
2023/08/21 01:03:59;;;;;;;17.05;10.52;;;;;;;21.14;100.00;98784.91;3192998;23;20394;-85
2023/08/21 01:05:18;;;;;;;14.93;11.43;;;;;;;21.33;100.00;98791.66;3204641;23;20099;-85
2023/08/21 01:06:34;;;;;;;15.10;10.82;;;;;;;21.41;100.00;98794.69;3209518;23;20031;-85
2023/08/21 01:08:13;;;;;;;11.23;10.02;;;;;;;21.43;100.00;98798.09;3214541;23;20339;-85
2023/08/21 01:09:48;;;;;;;12.55;9.93;;;;;;;21.55;100.00;98799.91;3209546;23;20472;-85
2023/08/21 01:11:31;;;;;;;12.60;9.75;;;;;;;21.62;100.00;98796.81;3209259;23;20016;-85
2023/08/21 01:12:54;;;;;;;14.25;10.23;;;;;;;21.69;100.00;98799.00;3208875;23;20621;-85
2023/08/21 01:14:29;;;;;;;13.65;10.88;;;;;;;21.72;100.00;98803.28;3197797;23;20028;-85
2023/08/21 01:15:46;;;;;;;13.73;10.57;;;;;;;21.71;100.00;98801.56;3202921;23;20024;-85
2023/08/21 01:17:05;;;;;;;14.30;10.10;;;;;;;21.74;100.00;98804.00;3214002;23;20027;-86
2023/08/21 01:18:21;;;;;;;12.45;9.68;;;;;;;21.76;100.00;98807.44;3209520;23;20016;-85
2023/08/21 01:19:41;;;;;;;15.55;11.00;;;;;;;21.75;100.00;98799.56;3214511;23;20080;-85
2023/08/21 01:20:58;;;;;;;13.63;10.15;;;;;;;21.70;100.00;98803.38;3209357;23;20027;-86
2023/08/21 01:22:13;;;;;;;10.23;9.13;;;;;;;21.71;100.00;98798.91;3209363;23;20047;-85
2023/08/21 01:23:35;;;;;;;13.32;9.50;;;;;;;21.70;100.00;98805.19;3209384;23;20032;-85
2023/08/21 01:24:51;;;;;;;12.85;9.13;;;;;;;21.67;100.00;98800.09;3214503;23;20121;-86
2023/08/21 01:26:07;;;;;;;10.43;9.27;;;;;;;21.63;100.00;98802.06;3209496;23;20020;-85
2023/08/21 01:27:22;;;;;;;13.65;9.88;;;;;;;21.59;100.00;98806.75;3209388;23;20012;-85
2023/08/21 01:28:38;;;;;;;11.48;10.27;;;;;;;21.40;100.00;98808.94;3209319;23;20039;-86
2023/08/21 01:29:54;;;;;;;12.00;9.88;;;;;;;21.36;100.00;98807.44;3214495;23;20024;-85
2023/08/21 01:31:19;;;;;;;13.23;9.73;;;;;;;20.97;100.00;98805.50;3209606;23;20016;-85
2023/08/21 01:32:41;;;;;;;13.90;10.32;;;;;;;21.15;100.00;98806.09;3210399;23;20021;-85
2023/08/21 01:34:01;;;;;;;11.68;10.45;;;;;;;21.31;100.00;98802.44;3210638;23;20023;-85
2023/08/21 01:35:18;;;;;;;14.07;10.40;;;;;;;21.24;100.00;98809.97;3215345;23;20047;-85
2023/08/21 01:36:34;;;;;;;12.80;9.43;;;;;;;20.99;100.00;98805.41;3210500;23;20017;-85
2023/08/21 01:37:51;;;;;;;13.35;10.13;;;;;;;20.88;100.00;98808.75;3210295;23;20016;-85
2023/08/21 01:39:07;;;;;;;14.25;9.98;;;;;;;21.01;100.00;98807.00;3210352;23;20780;-85
2023/08/21 01:40:24;;;;;;;14.10;10.43;;;;;;;21.01;100.00;98804.34;3215221;23;20020;-86
2023/08/21 01:41:41;;;;;;;11.60;9.75;;;;;;;20.88;100.00;98808.75;3215256;23;20020;-85
2023/08/21 01:42:57;;;;;;;15.15;10.48;;;;;;;20.94;100.00;98811.00;3210219;23;20016;-85
2023/08/21 01:44:12;;;;;;;13.32;10.38;;;;;;;20.82;100.00;98809.19;3210301;23;20071;-85
2023/08/21 01:45:28;;;;;;;14.48;10.32;;;;;;;20.85;100.00;98808.97;3215160;23;20040;-85
2023/08/21 01:46:44;;;;;;;14.63;10.35;;;;;;;20.74;100.00;98812.28;3210249;23;20024;-85
2023/08/21 01:47:59;;;;;;;13.52;10.07;;;;;;;20.62;100.00;98802.44;3210030;23;20043;-85
2023/08/21 01:49:15;;;;;;;15.80;10.55;;;;;;;20.75;100.00;98801.53;3210160;23;20472;-85
2023/08/21 01:50:31;;;;;;;13.88;10.10;;;;;;;20.64;100.00;98809.34;3193817;23;20037;-85
2023/08/21 01:51:46;;;;;;;12.57;10.65;;;;;;;20.39;100.00;98810.06;3205581;23;20384;-85
2023/08/21 01:53:02;;;;;;;11.48;9.95;;;;;;;20.57;100.00;98800.91;3215418;23;20047;-85
2023/08/21 01:54:17;;;;;;;17.02;10.50;;;;;;;20.59;100.00;98799.00;3210042;23;20025;-85
2023/08/21 01:55:33;;;;;;;14.02;10.75;;;;;;;20.38;100.00;98800.38;3198923;23;20492;-85
2023/08/21 01:56:48;;;;;;;16.10;11.38;;;;;;;20.38;100.00;98798.56;3200247;23;20020;-85
2023/08/21 01:58:04;;;;;;;13.15;10.90;;;;;;;20.46;100.00;98792.75;3210245;23;20353;-85
2023/08/21 01:59:20;;;;;;;14.98;11.48;;;;;;;20.37;100.00;98796.84;3210125;23;20020;-85
2023/08/21 02:00:35;;;;;;;15.57;11.00;;;;;;;20.49;100.00;98795.25;3210301;23;20104;-85
2023/08/21 02:01:51;;;;;;;15.68;11.27;;;;;;;20.62;100.00;98782.00;3212296;23;20213;-85
2023/08/21 02:03:06;;;;;;;17.95;11.68;;;;;;;20.82;100.00;98786.06;3212981;23;20016;-85
2023/08/21 02:04:22;;;;;;;13.27;10.90;;;;;;;20.92;100.00;98785.47;3215495;23;20182;-85
2023/08/21 02:05:39;;;;;;;15.23;11.88;;;;;;;20.90;100.00;98784.72;3215055;23;20174;-85
2023/08/21 02:06:55;;;;;;;14.13;11.63;;;;;;;20.86;100.00;98786.72;3210214;23;20020;-85
2023/08/21 02:08:13;;;;;;;13.27;10.75;;;;;;;20.84;100.00;98778.00;3215267;23;20318;-85
2023/08/21 02:09:29;;;;;;;15.05;10.73;;;;;;;20.60;100.00;98782.13;3210574;23;20497;-85
2023/08/21 02:10:51;;;;;;;13.88;11.02;;;;;;;20.40;100.00;98785.19;3215007;23;20020;-85
2023/08/21 02:12:07;;;;;;;14.02;10.82;;;;;;;20.57;100.00;98784.09;3210207;23;20445;-85
2023/08/21 02:13:22;;;;;;;14.30;10.65;;;;;;;20.45;100.00;98785.72;3215076;23;20333;-85
2023/08/21 02:14:38;;;;;;;14.45;11.13;;;;;;;20.28;100.00;98795.63;3210231;23;20028;-87
2023/08/21 02:15:54;;;;;;;15.38;11.45;;;;;;;20.35;100.00;98795.25;3210075;23;20103;-88
2023/08/21 02:17:09;;;;;;;13.68;10.82;;;;;;;20.37;100.00;98799.50;3215223;23;20382;-85
2023/08/21 02:18:24;;;;;;;14.35;11.48;;;;;;;20.37;100.00;98796.84;3210285;23;20025;-85
2023/08/21 02:19:40;;;;;;;15.13;11.85;;;;;;;20.29;100.00;98797.34;3210193;23;20024;-85
2023/08/21 02:20:56;;;;;;;12.98;11.15;;;;;;;20.32;100.00;98793.63;3215094;23;20396;-85
2023/08/21 02:22:11;;;;;;;17.95;11.55;;;;;;;20.39;100.00;98797.59;3210098;23;20020;-85
2023/08/21 02:23:27;;;;;;;13.85;11.30;;;;;;;20.40;100.00;98794.03;3210243;23;20012;-85
2023/08/21 02:24:42;;;;;;;13.38;11.05;;;;;;;20.45;100.00;98797.22;3210006;23;20093;-85
2023/08/21 02:25:58;;;;;;;13.88;10.55;;;;;;;20.49;100.00;98805.00;3215017;23;20024;-85
2023/08/21 02:27:14;;;;;;;16.40;11.32;;;;;;;20.37;100.00;98804.81;3210140;23;20036;-85
2023/08/21 02:28:29;;;;;;;17.70;12.10;;;;;;;20.38;100.00;98795.91;3209996;23;20029;-85
2023/08/21 02:29:45;;;;;;;16.85;11.15;;;;;;;20.47;100.00;98802.47;3193572;23;20016;-85
2023/08/21 02:31:00;;;;;;;13.38;11.20;;;;;;;20.48;100.00;98805.97;3205127;23;20066;-85
2023/08/21 02:32:16;;;;;;;12.23;10.48;;;;;;;20.56;100.00;98796.53;3198599;23;20084;-85
2023/08/21 02:33:31;;;;;;;14.13;10.50;;;;;;;20.64;100.00;98798.72;3205232;23;20051;-85
2023/08/21 02:34:47;;;;;;;11.00;9.77;;;;;;;20.66;100.00;98794.13;3209947;23;20016;-85
2023/08/21 02:36:03;;;;;;;12.70;10.35;;;;;;;20.71;100.00;98796.50;3215134;23;20024;-85
2023/08/21 02:37:19;;;;;;;14.35;10.50;;;;;;;20.74;100.00;98790.97;3215007;23;20024;-85
2023/08/21 02:38:35;;;;;;;12.20;9.80;;;;;;;20.76;100.00;98789.09;3210268;23;20057;-85
2023/08/21 02:39:51;;;;;;;11.98;10.57;;;;;;;20.78;100.00;98789.00;3210336;23;20027;-85
2023/08/21 02:41:07;;;;;;;12.82;10.23;;;;;;;20.75;100.00;98793.56;3215057;23;20345;-85
2023/08/21 02:42:22;;;;;;;11.90;10.48;;;;;;;20.75;100.00;98793.56;3193399;23;20472;-85
2023/08/21 02:43:38;;;;;;;13.15;10.68;;;;;;;20.71;100.00;98796.50;3205086;23;20020;-85
2023/08/21 02:44:53;;;;;;;11.98;9.93;;;;;;;20.67;100.00;98790.53;3210123;23;20074;-86
2023/08/21 02:46:09;;;;;;;13.43;10.38;;;;;;;20.69;100.00;98791.31;3214858;23;20394;-86
2023/08/21 02:47:24;;;;;;;11.27;10.07;;;;;;;20.61;100.00;98796.25;3210343;23;20308;-85
2023/08/21 02:48:40;;;;;;;13.02;9.70;;;;;;;20.48;100.00;98790.88;3209772;23;20031;-85
2023/08/21 02:49:55;;;;;;;11.30;9.40;;;;;;;20.46;100.00;98792.75;3210149;23;20021;-85
2023/08/21 02:51:11;;;;;;;11.40;9.45;;;;;;;20.49;100.00;98781.94;3214916;23;20091;-85
2023/08/21 02:52:26;;;;;;;14.90;10.40;;;;;;;20.39;100.00;98802.91;3210024;23;20449;-85
2023/08/21 02:53:42;;;;;;;11.32;9.80;;;;;;;20.26;100.00;98796.69;3209948;23;20032;-85
2023/08/21 02:54:58;;;;;;;14.65;10.35;;;;;;;20.22;100.00;98793.38;3215119;23;20033;-85
2023/08/21 02:56:14;;;;;;;11.60;10.10;;;;;;;20.24;100.00;98794.13;3215002;23;20059;-85
2023/08/21 02:57:29;;;;;;;13.00;10.13;;;;;;;20.26;100.00;98792.22;3215212;23;20024;-85
2023/08/21 02:58:45;;;;;;;14.70;10.52;;;;;;;20.22;100.00;98792.50;3209827;23;20024;-85
2023/08/21 03:00:00;;;;;;;13.23;10.63;;;;;;;20.07;100.00;98796.97;3209971;23;20016;-85
2023/08/21 03:01:17;;;;;;;12.63;10.50;;;;;;;19.97;100.00;98797.53;3214274;23;20020;-85
2023/08/21 03:02:32;;;;;;;15.13;10.88;;;;;;;19.98;100.00;98798.41;3209648;23;20027;-85
2023/08/21 03:03:48;;;;;;;12.90;10.65;;;;;;;20.07;100.00;98802.28;3210088;23;20024;-85
2023/08/21 03:05:06;;;;;;;14.07;10.68;;;;;;;20.13;100.00;98797.44;3209537;23;20031;-86
2023/08/21 03:06:22;;;;;;;12.25;10.23;;;;;;;20.22;100.00;98800.47;3209734;23;20024;-86
2023/08/21 03:07:38;;;;;;;15.32;11.10;;;;;;;20.28;100.00;98803.59;3209496;23;20036;-85
2023/08/21 03:08:54;;;;;;;12.57;10.40;;;;;;;20.24;100.00;98802.09;3209899;23;20066;-85
2023/08/21 03:10:10;;;;;;;17.35;10.85;;;;;;;20.28;100.00;98802.75;3214721;23;20024;-85
2023/08/21 03:11:25;;;;;;;18.60;11.00;;;;;;;20.16;100.00;98799.91;3209331;23;20024;-85
2023/08/21 03:12:41;;;;;;;13.45;10.73;;;;;;;20.11;100.00;98796.66;3209701;23;20027;-85
2023/08/21 03:13:56;;;;;;;12.70;10.45;;;;;;;20.08;100.00;98804.84;3210043;23;20223;-85
2023/08/21 03:15:12;;;;;;;14.52;11.65;;;;;;;20.03;100.00;98804.28;3209863;23;20047;-87
2023/08/21 03:16:27;;;;;;;16.80;11.57;;;;;;;19.98;100.00;98811.69;3215026;23;20027;-85
2023/08/21 03:17:43;;;;;;;15.20;11.82;;;;;;;20.00;100.00;98802.66;3214969;23;20032;-85
2023/08/21 03:19:00;;;;;;;15.50;11.65;;;;;;;20.07;100.00;98807.59;3209887;23;20027;-84
2023/08/21 03:20:17;;;;;;;15.02;11.45;;;;;;;20.16;100.00;98804.34;3209981;23;20445;-85
2023/08/21 03:21:33;;;;;;;15.55;12.20;;;;;;;20.14;100.00;98803.59;3193297;23;20655;-86
2023/08/21 03:22:48;;;;;;;13.05;11.65;;;;;;;20.30;100.00;98808.84;3199684;23;20024;-85
2023/08/21 03:24:06;;;;;;;20.83;12.88;;;;;;;20.41;100.00;98810.81;3209992;23;20017;-85
2023/08/21 03:25:21;;;;;;;14.15;11.60;;;;;;;20.42;100.00;98813.38;3209784;23;20079;-85
2023/08/21 03:26:37;;;;;;;14.52;11.13;;;;;;;20.41;100.00;98803.72;3214804;23;20075;-86
2023/08/21 03:27:52;;;;;;;15.57;11.75;;;;;;;20.41;100.00;98811.69;3209849;23;20023;-85
2023/08/21 03:29:08;;;;;;;13.35;11.00;;;;;;;20.40;100.00;98807.31;3209797;23;20021;-86
2023/08/21 03:30:23;;;;;;;15.43;10.82;;;;;;;20.31;100.00;98811.38;3209951;23;20016;-85
2023/08/21 03:31:39;;;;;;;14.65;10.90;;;;;;;20.31;100.00;98810.53;3214605;23;20027;-85
2023/08/21 03:32:54;;;;;;;17.05;11.25;;;;;;;20.31;100.00;98813.19;3209512;23;20027;-85
2023/08/21 03:34:10;;;;;;;19.65;12.50;;;;;;;20.35;100.00;98816.53;3209616;23;20021;-85
2023/08/21 03:35:25;;;;;;;16.63;11.95;;;;;;;20.31;100.00;98815.88;3209684;23;20016;-84
2023/08/21 03:36:41;;;;;;;14.57;11.35;;;;;;;20.24;100.00;98811.84;3214790;23;20449;-85
2023/08/21 03:37:57;;;;;;;15.32;11.82;;;;;;;20.20;100.00;98818.31;3210022;23;20021;-85
2023/08/21 03:39:12;;;;;;;15.50;12.15;;;;;;;20.20;100.00;98821.84;3209686;23;20023;-86
2023/08/21 03:40:28;;;;;;;14.93;11.68;;;;;;;20.27;100.00;98822.31;3214837;23;20125;-85
2023/08/21 03:41:43;;;;;;;13.27;11.50;;;;;;;20.18;100.00;98816.63;3214693;23;20025;-85
2023/08/21 03:42:59;;;;;;;13.63;10.65;;;;;;;20.28;100.00;98821.38;3209798;23;20023;-86
2023/08/21 03:44:14;;;;;;;12.02;10.00;;;;;;;20.30;100.00;98820.31;3209850;23;20016;-86
2023/08/21 03:45:30;;;;;;;13.77;10.45;;;;;;;20.30;100.00;98819.47;3209808;23;20017;-84
2023/08/21 03:46:45;;;;;;;15.07;10.93;;;;;;;20.28;100.00;98818.72;3214742;23;20028;-85
2023/08/21 03:48:01;;;;;;;13.93;11.13;;;;;;;20.30;100.00;98811.50;3209685;23;20154;-84
2023/08/21 03:49:17;;;;;;;14.93;10.80;;;;;;;20.30;100.00;98819.47;3209578;23;20020;-84
2023/08/21 03:50:32;;;;;;;17.40;11.88;;;;;;;20.27;100.00;98820.50;3209544;23;20457;-85
2023/08/21 03:51:48;;;;;;;16.92;11.95;;;;;;;20.18;100.00;98813.97;3209889;23;20100;-85
2023/08/21 03:53:03;;;;;;;18.92;11.40;;;;;;;20.13;100.00;98823.16;3209383;23;20119;-85
2023/08/21 03:54:19;;;;;;;15.52;11.27;;;;;;;20.05;100.00;98828.94;3209313;23;20016;-84
2023/08/21 03:55:34;;;;;;;14.93;11.63;;;;;;;20.01;100.00;98828.28;3209574;23;20028;-84
2023/08/21 03:56:50;;;;;;;14.30;11.73;;;;;;;20.04;100.00;98827.25;3209585;23;20020;-84
2023/08/21 03:58:05;;;;;;;13.07;11.63;;;;;;;20.02;100.00;98827.31;3209542;23;20024;-84
2023/08/21 03:59:22;;;;;;;16.30;11.27;;;;;;;20.06;100.00;98821.84;3209644;23;20468;-84
2023/08/21 04:00:38;;;;;;;14.32;10.98;;;;;;;19.95;100.00;98819.81;3214694;23;20024;-84
2023/08/21 04:01:54;;;;;;;18.02;11.43;;;;;;;19.98;100.00;98817.00;3211318;23;20028;-84
2023/08/21 04:03:09;;;;;;;17.48;12.02;;;;;;;19.84;100.00;98823.09;3209669;23;20021;-84
2023/08/21 04:04:25;;;;;;;17.70;13.18;;;;;;;19.95;100.00;98820.69;3214620;23;20023;-84
2023/08/21 04:05:40;;;;;;;18.80;13.93;;;;;;;19.97;100.00;98821.44;3209656;23;20021;-84
2023/08/21 04:06:56;;;;;;;17.80;13.43;;;;;;;19.74;100.00;98822.81;3214474;23;20025;-84
2023/08/21 04:08:11;;;;;;;17.27;12.52;;;;;;;19.77;100.00;98819.97;3209591;23;20024;-84
2023/08/21 04:09:27;;;;;;;19.77;13.32;;;;;;;19.76;100.00;98815.59;3209619;23;20143;-85
2023/08/21 04:10:42;;;;;;;17.40;13.00;;;;;;;19.83;100.00;98819.56;3193063;23;20017;-84
2023/08/21 04:11:58;;;;;;;16.50;12.90;;;;;;;19.93;100.00;98821.72;3202377;23;20060;-84
2023/08/21 04:13:13;;;;;;;17.40;13.00;;;;;;;20.00;100.00;98823.91;3209702;23;20021;-84
2023/08/21 04:14:29;;;;;;;17.45;12.30;;;;;;;19.87;100.00;98817.59;3209612;23;20032;-84
2023/08/21 04:15:45;;;;;;;19.50;13.75;;;;;;;19.97;100.00;98818.78;3209432;23;20051;-85
2023/08/21 04:17:01;;;;;;;17.17;12.52;;;;;;;19.92;100.00;98823.53;3214584;23;20044;-84
2023/08/21 04:18:16;;;;;;;16.20;12.45;;;;;;;19.86;100.00;98822.06;3209563;23;20024;-84
2023/08/21 04:19:33;;;;;;;15.05;12.35;;;;;;;20.01;100.00;98819.47;3209337;23;20013;-84
2023/08/21 04:20:49;;;;;;;16.55;12.60;;;;;;;20.10;100.00;98824.19;3209786;23;20024;-84
2023/08/21 04:22:05;;;;;;;14.23;12.10;;;;;;;20.16;100.00;98825.63;3214620;23;20036;-85
2023/08/21 04:23:20;;;;;;;16.83;12.65;;;;;;;20.16;100.00;98829.16;3209400;23;20082;-84
2023/08/21 04:24:36;;;;;;;17.80;13.23;;;;;;;20.24;100.00;98830.47;3209905;23;20040;-84
2023/08/21 04:25:51;;;;;;;17.52;12.98;;;;;;;20.30;100.00;98833.59;3209322;23;20043;-84
2023/08/21 04:27:07;;;;;;;16.73;12.70;;;;;;;20.31;100.00;98823.84;3209599;23;20557;-84
2023/08/21 04:28:22;;;;;;;16.75;12.30;;;;;;;20.03;100.00;98828.19;3214483;23;20016;-85
2023/08/21 04:29:39;;;;;;;15.65;12.18;;;;;;;20.10;100.00;98824.19;3209728;23;20021;-84
2023/08/21 04:30:54;;;;;;;16.77;12.50;;;;;;;20.11;100.00;98822.41;3209501;23;20543;-83
2023/08/21 04:32:10;;;;;;;18.13;12.40;;;;;;;20.04;100.00;98828.13;3198241;23;20021;-84
2023/08/21 04:33:28;;;;;;;17.88;12.18;;;;;;;20.13;100.00;98826.69;3199769;23;20020;-84
2023/08/21 04:34:43;;;;;;;16.02;12.77;;;;;;;20.08;100.00;98830.56;3209525;23;20032;-86
2023/08/21 04:35:59;;;;;;;18.42;14.18;;;;;;;20.17;100.00;98824.69;3209550;23;20013;-85
2023/08/21 04:37:15;;;;;;;17.23;13.02;;;;;;;20.26;100.00;98831.25;3209519;23;20120;-84
2023/08/21 04:38:30;;;;;;;14.60;12.23;;;;;;;20.04;100.00;98832.56;3209617;23;20020;-84
2023/08/21 04:39:49;;;;;;;18.67;13.90;;;;;;;20.05;100.00;98826.28;3209638;23;20020;-84
2023/08/21 04:41:08;;;;;;;16.45;13.00;;;;;;;20.00;100.00;98829.22;3209571;23;20150;-86
2023/08/21 04:42:24;;;;;;;19.77;14.43;;;;;;;20.06;100.00;98822.69;3214423;23;20020;-86
2023/08/21 04:43:40;;;;;;;17.38;13.75;;;;;;;20.18;100.00;98821.06;3209484;23;20028;-86
2023/08/21 04:44:55;;;;;;;18.05;13.77;;;;;;;20.31;100.00;98819.34;3209510;23;20027;-87
2023/08/21 04:46:11;;;;;;;17.15;13.57;;;;;;;20.23;100.00;98821.66;3214627;23;20025;-84
2023/08/21 04:47:27;;;;;;;17.65;13.95;;;;;;;20.15;100.00;98822.13;3209502;23;20026;-84
2023/08/21 04:48:42;;;;;;;16.98;13.98;;;;;;;20.12;100.00;98817.00;3209234;23;20021;-86
2023/08/21 04:49:58;;;;;;;19.98;13.88;;;;;;;20.11;100.00;98823.25;3209438;23;20024;-86
2023/08/21 04:51:14;;;;;;;16.38;13.68;;;;;;;20.24;100.00;98815.38;3209551;23;20040;-86
2023/08/21 04:52:30;;;;;;;16.17;12.95;;;;;;;20.35;100.00;98825.34;3214488;23;20454;-84
2023/08/21 04:53:46;;;;;;;23.27;15.13;;;;;;;20.47;100.00;98831.72;3209593;23;20028;-83
2023/08/21 04:55:01;;;;;;;19.27;15.20;;;;;;;20.49;100.00;98824.50;3209373;23;20066;-84
2023/08/21 04:56:17;;;;;;;22.42;14.63;;;;;;;20.56;100.00;98827.63;3209577;23;20227;-85
2023/08/21 04:57:32;;;;;;;21.63;15.52;;;;;;;20.60;100.00;98832.66;3214440;23;20031;-85
2023/08/21 04:58:48;;;;;;;18.95;15.85;;;;;;;20.67;100.00;98821.63;3193073;23;20031;-84
2023/08/21 05:00:04;;;;;;;17.92;14.75;;;;;;;20.76;100.00;98831.69;3199497;23;20028;-83
2023/08/21 05:01:19;;;;;;;17.15;13.32;;;;;;;20.73;100.00;98819.41;3209017;23;20017;-83
2023/08/21 05:02:35;;;;;;;16.17;12.88;;;;;;;20.68;100.00;98837.50;3211942;23;20020;-85
2023/08/21 05:03:51;;;;;;;18.10;13.63;;;;;;;20.70;100.00;98832.91;3214285;23;20025;-84
2023/08/21 05:05:08;;;;;;;14.57;12.00;;;;;;;20.68;100.00;98836.63;3209648;23;20079;-84
2023/08/21 05:06:23;;;;;;;17.23;12.45;;;;;;;20.80;100.00;98827.84;3210240;23;20027;-84
2023/08/21 05:07:39;;;;;;;17.27;12.55;;;;;;;20.78;100.00;98828.91;3215557;23;20742;-84
2023/08/21 05:08:55;;;;;;;16.38;12.43;;;;;;;20.80;100.00;98835.84;3210306;23;20017;-84
2023/08/21 05:10:10;;;;;;;16.35;12.20;;;;;;;20.83;100.00;98834.84;3210378;23;20013;-83
2023/08/21 05:11:26;;;;;;;16.48;12.50;;;;;;;20.92;100.00;98830.72;3194099;23;20103;-84
2023/08/21 05:12:41;;;;;;;16.05;11.98;;;;;;;20.90;100.00;98833.47;3200258;23;20031;-84
2023/08/21 05:13:57;;;;;;;15.32;12.38;;;;;;;20.96;100.00;98833.09;3215419;23;20024;-84
2023/08/21 05:15:14;;;;;;;16.15;12.15;;;;;;;20.82;100.00;98836.63;3210201;23;20028;-83
2023/08/21 05:16:29;;;;;;;15.00;11.98;;;;;;;20.83;100.00;98837.50;3210465;23;20045;-84
2023/08/21 05:17:45;;;;;;;19.13;12.98;;;;;;;20.86;100.00;98839.94;3210248;23;20414;-84
2023/08/21 05:19:01;;;;;;;14.98;12.02;;;;;;;20.81;100.00;98850.88;3210551;23;20318;-83
2023/08/21 05:20:17;;;;;;;14.93;12.10;;;;;;;20.94;100.00;98837.63;3210010;23;20020;-84
2023/08/21 05:21:33;;;;;;;17.75;12.45;;;;;;;20.98;100.00;98847.16;3210421;23;20322;-84
2023/08/21 05:22:48;;;;;;;16.88;11.88;;;;;;;20.97;100.00;98839.25;3210060;23;20082;-84
2023/08/21 05:24:04;;;;;;;15.98;12.18;;;;;;;21.14;100.00;98849.66;3210496;23;20017;-84
2023/08/21 05:25:20;;;;;;;16.08;12.15;;;;;;;21.17;100.00;98841.47;3210153;23;20036;-84
2023/08/21 05:26:37;;;;;;;14.75;11.50;;;;;;;21.13;100.00;98844.44;3210383;23;20020;-84
2023/08/21 05:27:53;;;;;;;14.57;11.88;;;;;;;21.18;100.00;98852.97;3215216;23;20040;-83
2023/08/21 05:29:08;;;;;;;14.38;11.65;;;;;;;21.19;100.00;98849.34;3210489;23;20449;-83
2023/08/21 05:30:25;;;;;;;16.10;12.35;;;;;;;21.08;100.00;98849.19;3210364;23;20100;-83
2023/08/21 05:31:40;;;;;;;15.85;12.45;;;;;;;21.21;100.00;98842.13;3210307;23;20020;-84
2023/08/21 05:32:56;;;;;;;17.52;12.18;;;;;;;21.13;100.00;98847.09;3215571;23;20095;-83
2023/08/21 05:34:12;;;;;;;14.73;11.32;;;;;;;21.15;100.00;98854.00;3210233;23;20024;-82
2023/08/21 05:35:27;;;;;;;15.73;12.60;;;;;;;21.25;100.00;98856.94;3215634;23;20047;-82
2023/08/21 05:36:42;;;;;;;15.45;12.70;;;;;;;21.21;100.00;98852.75;3193485;23;20278;-83
2023/08/21 05:37:58;;;;;;;16.73;13.65;;;;;;;21.27;100.00;98846.19;3205370;23;20052;-82
2023/08/21 05:39:14;;;;;;;16.30;13.05;;;;;;;21.39;100.00;98847.19;3210258;23;20032;-82
2023/08/21 05:40:29;;;;;;;17.10;12.60;;;;;;;21.47;100.00;98847.53;3210205;23;20021;-82
2023/08/21 05:41:45;;;;;;;16.40;12.75;;;;;;;21.39;100.00;98852.53;3209970;23;20449;-82
2023/08/21 05:43:01;;;;;;;14.75;12.07;;;;;;;21.37;100.00;98854.41;3215472;23;20083;-82
2023/08/21 05:44:16;;;;;;;14.40;12.57;;;;;;;21.53;100.00;98856.91;3210268;23;20384;-82
2023/08/21 05:45:32;;;;;;;17.15;13.13;;;;;;;21.59;100.00;98854.69;3193562;23;20680;-84
2023/08/21 05:46:47;;;;;;;17.40;12.88;;;;;;;21.47;100.00;98852.84;3200408;23;20052;-82